CheckWX is a tool to help pilots better visualize weather data.  It is not intended as a substitute for an official pre-flight weather briefing.

05:49:15 UTC

KBED METAR
Laurence G Hanscom Field Airport
Bedford, Massachusetts, USA
Current

58 mins ago

KBED 280451Z 26018G26KT 10SM FEW060 M01/M16 A2964 RMK AO2 PK WND 27035/0427 SLP051 T10111161 401171011
Observed
Feb-28 @ 04:51 UTC
Wind
  • 260° at 18 KTS
  • Gusting to 26 KTS
Visibility
10 SM
Flight Rules
VFR
Cloud Levels
  • Few at 6,000' AGL
Temperature
-1°C / 30°F
Dewpoint
-16°C / 3°F
Humidity
31%
Altimeter
29.64" Hg
Pressure
1003.72 hPa
Previous

2 hours ago

KBED 280351Z 26013G28KT 10SM BKN060 M01/M14 A2962 RMK AO2 PK WND 26034/0320 SLP045 T10061144
Observed
Feb-28 @ 03:51 UTC
Wind
  • 260° at 13 KTS
  • Gusting to 28 KTS
Visibility
10 SM
Flight Rules
VFR
Cloud Levels
  • Broken at 6,000' AGL
Temperature
-1°C / 30°F
Dewpoint
-14°C / 7°F
Humidity
37%
Altimeter
29.62" Hg
Pressure
1003.02 hPa
Previous

3 hours ago

KBED 280251Z 26012G32KT 10SM SCT060 00/M14 A2961 RMK AO2 PK WND 27040/0219 SLP040 T00001144 51034
Observed
Feb-28 @ 02:51 UTC
Wind
  • 260° at 12 KTS
  • Gusting to 32 KTS
Visibility
10 SM
Flight Rules
VFR
Cloud Levels
  • Scattered at 6,000' AGL
Temperature
C / 32°F
Dewpoint
-14°C / 7°F
Humidity
34%
Altimeter
29.61" Hg
Pressure
1002.72 hPa